Flight Track Log - Related Links

Times and Time Zones

All times are in EDT time to prevent confusion due to time zone crossing. See the RPA4892 flight status page for this flight to view local times or setup timezone preferences in your user account.

Time Position Orientation Groundspeed Altitude Reporting Facility
EDT Latitude Longitude Course Direction KTS MPH feet Rate Location/Type
Fri 07:01:21 PM 39.2886 -106.9428 293° West 222 255 11,100  Level Denver Center
Fri 07:02:24 PM 39.3022 -107.0206 283° West 221 254 12,800 1,680 Climbing Denver Center
Fri 07:03:26 PM 39.3542 -107.0539 334° Northwest 233 268 14,600 1,597 Climbing Denver Center
Fri 07:04:28 PM 39.3892 -106.9867 56° Northeast 245 282 16,100 1,548 Climbing Denver Center
Fri 07:05:30 PM 39.3828 -106.8767 94° East 260 299 17,800 1,113 Climbing Denver Center
Fri 07:06:32 PM 39.3867 -106.7789 87° East 278 320 18,400 774 Climbing Denver Center
Fri 07:07:34 PM 39.3747 -106.6731 98° East 294 338 19,400 919 Climbing Denver Center
Fri 07:08:36 PM 39.3617 -106.5614 99° East 310 357 20,300 774 Climbing Denver Center
Fri 07:09:38 PM 39.3422 -106.4236 100° East 314 361 21,000 339 Climbing Denver Center
Fri 07:10:40 PM 39.3142 -106.3050 107° East 340 391 21,000  Level Denver Center
Fri 07:11:42 PM 39.2867 -106.1814 106° East 357 411 21,000  Level Denver Center
Fri 07:12:44 PM 39.2642 -106.0628 104° East 358 412 21,000  Level Denver Center
Fri 07:13:47 PM 39.2308 -105.9111 106° East 364 419 21,000  Level Denver Center
Fri 07:14:49 PM 39.2031 -105.7853 106° East 365 420 21,000  Level Denver Center
Fri 07:15:51 PM 39.1744 -105.6600 106° East 365 420 21,000 -48 Level Denver Center
Fri 07:16:53 PM 39.1492 -105.5381 105° East 361 415 20,900 -242 Descending Denver Center
Fri 07:17:55 PM 39.1383 -105.4389 98° East 308 354 20,500 -919 Descending Denver Center
Fri 07:18:57 PM 39.2011 -105.4544 349° North 267 307 19,000 -1,452 Descending Denver Center
Fri 07:19:59 PM 39.1697 -105.5253 240° Southwest 247 284 17,500 -1,403 Descending Denver Center
Fri 07:21:01 PM 39.1381 -105.4594 122° Southeast 268 308 16,100 -726 Descending Denver Center
Fri 07:22:03 PM 39.2033 -105.3753 45° Northeast 320 368 16,000 -290 Descending Denver Center
Fri 07:23:05 PM 39.2725 -105.2867 45° Northeast 346 398 15,500 -532 Descending Denver Center
Fri 07:24:07 PM 39.3569 -105.1958 40° Northeast 363 418 14,900 -576 Descending Denver Center
Fri 07:25:10 PM 39.4356 -105.1178 37° Northeast 357 411 14,300 -576 Descending Denver Center
Fri 07:26:12 PM 39.5200 -105.0272 40° Northeast 357 411 13,700 -629 Descending Denver Center
Fri 07:27:14 PM 39.5961 -104.9464 39° Northeast 359 413 13,000 -339 Descending Denver Center
Fri 07:28:16 PM 39.6731 -104.8642 39° Northeast 327 376 13,000 -387 Level Denver Center
Fri 07:29:18 PM 39.7575 -104.8389 13° North 318 366 12,200 -823 Descending Denver Center
Fri 07:30:20 PM 39.8453 -104.8450 357° North 305 351 11,300 -581 Descending Denver Center
Fri 07:31:22 PM 39.9317 -104.8356 North 290 334 11,000 -774 Descending Denver Center
Fri 07:32:24 PM 40.0125 -104.8236 North 290 334 9,700 -1,210 Descending Denver Center
Fri 07:33:26 PM 40.0553 -104.7606 48° Northeast 250 288 8,500 -1,016 Descending Denver Center
Fri 07:34:28 PM 40.0097 -104.7025 136° Southeast 227 261 7,600 -960 Descending Denver Center
Fri 07:35:31 PM 39.9572 -104.6956 174° South 188 216 6,500 -864 Descending Denver Center
Fri 07:36:33 PM 39.9169 -104.6958 180° South 140 161 5,800 -532 Descending Denver Center
Fri 07:37:35 PM 39.8811 -104.6958 180° South 131 151 5,400 -387 Descending Denver Center
Fri 07:39:00 PM 39.8617 -104.6732 128° Southeast  Level Estimated
Fri 07:46:00 PM 39.8617 -104.6732 North  Level Estimated
Fri 07:47:00 PM 39.8617 -104.6732 128° Southeast  Level Estimated

Login

Don't have an account? Register now (free) for customized features, flight alerts, and more!